Time;durP1;ratioP1;P1;durP2;ratioP2;P2;SDS_P1;SDS_P2;PMS_P1;PMS_P2;Temp;Humidity;BMP_temperature;BMP_pressure;BME280_temperature;BME280_humidity;BME280_pressure;Samples;Min_cycle;Max_cycle;Signal;HPM_P1;HPM_P2
2023/03/30 00:01:21;;;;;;;9.50;3.10;;;;;15.90;98081.00;;;;5025958;28;20053;-60
2023/03/30 00:03:48;;;;;;;14.05;3.08;;;;;15.90;98070.00;;;;5026614;28;20060;-60
2023/03/30 00:06:21;;;;;;;16.45;2.95;;;;;15.80;98080.00;;;;5019613;28;20100;-61
2023/03/30 00:08:52;;;;;;;10.60;2.83;;;;;15.70;98077.00;;;;5019617;28;20050;-60
2023/03/30 00:11:21;;;;;;;10.07;2.40;;;;;15.70;98069.00;;;;5020700;28;20050;-60
2023/03/30 00:13:51;;;;;;;7.85;2.60;;;;;15.70;98071.00;;;;5020818;28;20048;-60
2023/03/30 00:16:18;;;;;;;16.27;2.80;;;;;15.70;98074.00;;;;5025362;28;20116;-59
2023/03/30 00:18:46;;;;;;;11.95;3.22;;;;;15.70;98076.00;;;;5023732;28;20046;-61
2023/03/30 00:21:16;;;;;;;12.85;2.80;;;;;15.70;98068.00;;;;5022982;28;20042;-61
2023/03/30 00:23:45;;;;;;;7.97;2.75;;;;;15.70;98064.00;;;;5023303;28;20060;-60
2023/03/30 00:26:13;;;;;;;8.68;2.42;;;;;15.70;98080.00;;;;5019202;28;20049;-60
2023/03/30 00:28:40;;;;;;;9.68;2.35;;;;;15.70;98083.00;;;;5018293;28;20052;-60
2023/03/30 00:31:06;;;;;;;13.20;2.85;;;;;15.60;98067.00;;;;5019495;28;20072;-60
2023/03/30 00:33:33;;;;;;;10.65;2.72;;;;;15.60;98044.00;;;;5018824;28;20053;-59
2023/03/30 00:36:11;;;;;;;13.05;3.55;;;;;15.60;98036.00;;;;5019365;28;20049;-60
2023/03/30 00:38:37;;;;;;;9.23;3.10;;;;;15.60;98036.00;;;;5015132;28;20038;-59
2023/03/30 00:41:05;;;;;;;9.38;2.22;;;;;15.60;98043.00;;;;5014975;28;20042;-60
2023/03/30 00:43:32;;;;;;;7.57;2.47;;;;;15.60;98051.00;;;;5015074;28;20096;-58
2023/03/30 00:45:59;;;;;;;11.07;2.95;;;;;15.70;98051.00;;;;5020454;28;20041;-59
2023/03/30 00:48:35;;;;;;;9.30;2.90;;;;;15.70;98062.00;;;;5021826;28;20058;-59
2023/03/30 00:51:08;;;;;;;11.73;3.38;;;;;15.70;98069.00;;;;5020549;28;20056;-59
2023/03/30 00:53:40;;;;;;;14.23;3.03;;;;;15.80;98058.00;;;;5023100;28;20056;-60
2023/03/30 00:56:11;;;;;;;5.35;2.35;;;;;15.80;98057.00;;;;5020616;28;20522;-59
2023/03/30 00:58:39;;;;;;;12.18;2.53;;;;;15.90;98054.00;;;;5020617;28;20050;-59
2023/03/30 01:01:09;;;;;;;9.05;2.15;;;;;16.00;98050.00;;;;5021104;28;20104;-59
2023/03/30 01:03:44;;;;;;;10.80;2.60;;;;;16.00;98044.00;;;;5013891;28;20126;-59
2023/03/30 01:06:12;;;;;;;11.13;2.47;;;;;16.10;98043.00;;;;5012177;28;20045;-59
2023/03/30 01:08:41;;;;;;;7.60;2.70;;;;;16.10;98060.00;;;;5014421;28;20057;-59
2023/03/30 01:11:08;;;;;;;8.00;2.42;;;;;16.20;98062.00;;;;5014553;28;20521;-59
2023/03/30 01:13:37;;;;;;;8.05;2.40;;;;;16.30;98067.00;;;;5012083;28;20076;-59
2023/03/30 01:16:32;;;;;;;10.27;2.65;;;;;16.30;98048.00;;;;5013537;28;20160;-59
2023/03/30 01:19:47;;;;;;;13.10;3.63;;;;;16.40;98055.00;;;;5012498;28;20565;-59
2023/03/30 01:22:40;;;;;;;13.68;3.17;;;;;16.40;98033.00;;;;5011611;28;20054;-59
2023/03/30 01:25:26;;;;;;;18.05;2.78;;;;;16.50;98043.00;;;;5011419;28;20466;-59
2023/03/30 01:28:12;;;;;;;12.18;3.15;;;;;16.50;98053.00;;;;5012842;28;20049;-58
2023/03/30 01:31:12;;;;;;;8.82;2.08;;;;;16.50;98051.00;;;;5010817;28;20052;-59
2023/03/30 01:34:27;;;;;;;8.85;2.80;;;;;16.50;98061.00;;;;5011742;28;20108;-59
2023/03/30 01:37:16;;;;;;;7.38;2.80;;;;;16.50;98084.00;;;;4999161;28;20100;-59
2023/03/30 01:40:23;;;;;;;15.13;3.08;;;;;16.60;98093.00;;;;5012020;28;20038;-59
2023/03/30 01:43:29;;;;;;;7.68;2.47;;;;;16.60;98091.00;;;;4953518;29;20572;-59
2023/03/30 01:46:07;;;;;;;14.43;2.42;;;;;16.60;98073.00;;;;5011819;28;20112;-59
2023/03/30 01:48:46;;;;;;;8.23;2.38;;;;;16.50;98046.00;;;;5024974;28;20054;-60
2023/03/30 01:51:25;;;;;;;10.00;2.83;;;;;16.40;98017.00;;;;5026331;28;20049;-60
2023/03/30 01:54:03;;;;;;;10.30;2.60;;;;;16.40;98034.00;;;;5027036;28;20041;-60
2023/03/30 01:56:32;;;;;;;9.90;2.72;;;;;16.40;98034.00;;;;5012752;28;20038;-60
2023/03/30 01:59:30;;;;;;;14.50;3.20;;;;;16.30;98054.00;;;;5011475;28;20045;-60
2023/03/30 02:02:01;;;;;;;10.68;3.40;;;;;16.20;98051.00;;;;5004808;28;20049;-60
2023/03/30 02:04:33;;;;;;;12.68;3.00;;;;;16.20;98060.00;;;;5012294;28;20524;-59
2023/03/30 02:07:07;;;;;;;8.70;2.70;;;;;16.10;98062.00;;;;5013069;28;20068;-59
2023/03/30 02:09:37;;;;;;;11.45;3.00;;;;;16.00;98092.00;;;;5011257;28;20046;-60
2023/03/30 02:12:04;;;;;;;13.23;2.55;;;;;16.00;98088.00;;;;5012691;28;20046;-60
2023/03/30 02:14:36;;;;;;;11.43;3.08;;;;;16.00;98068.00;;;;5012489;28;20084;-60
2023/03/30 02:17:10;;;;;;;9.93;2.70;;;;;16.00;98069.00;;;;5011382;28;20041;-60
2023/03/30 02:19:37;;;;;;;;;;;;;16.00;98040.00;;;;5012293;28;20519;-60
2023/03/30 02:22:05;;;;;;;7.18;3.38;;;;;16.00;98015.00;;;;5012585;28;19921;-60
2023/03/30 02:24:32;;;;;;;10.00;2.55;;;;;16.00;98024.00;;;;5013311;28;20053;-60
2023/03/30 02:27:00;;;;;;;11.02;2.63;;;;;16.00;98051.00;;;;5016653;28;20045;-60
2023/03/30 02:29:28;;;;;;;14.98;3.65;;;;;16.00;98064.00;;;;5014149;28;20430;-60
2023/03/30 02:31:57;;;;;;;7.90;2.95;;;;;16.00;98077.00;;;;5014657;28;20046;-60
2023/03/30 02:34:27;;;;;;;12.43;2.78;;;;;15.90;98077.00;;;;5014659;28;20068;-60
2023/03/30 02:37:25;;;;;;;7.47;2.92;;;;;15.90;98088.00;;;;5014690;28;20397;-60
2023/03/30 02:40:12;;;;;;;14.57;3.08;;;;;15.90;98086.00;;;;5013821;28;20081;-60
2023/03/30 02:43:05;;;;;;;12.95;2.92;;;;;15.80;98078.00;;;;5014650;28;20050;-60
2023/03/30 02:45:46;;;;;;;15.38;3.97;;;;;15.80;98081.00;;;;5015828;28;20034;-59
2023/03/30 02:48:21;;;;;;;14.00;2.93;;;;;15.80;98080.00;;;;5015015;28;20050;-60
2023/03/30 02:51:15;;;;;;;13.68;3.08;;;;;15.80;98067.00;;;;5014162;28;20512;-60
2023/03/30 02:54:38;;;;;;;10.05;3.15;;;;;15.70;98051.00;;;;5012364;28;20064;-60
2023/03/30 02:57:45;;;;;;;9.80;3.00;;;;;15.70;98047.00;;;;4992193;28;20058;-59
2023/03/30 03:00:55;;;;;;;12.20;3.53;;;;;15.70;98026.00;;;;5001285;28;20045;-60
2023/03/30 03:03:42;;;;;;;14.88;3.42;;;;;15.70;98023.00;;;;5030693;28;20056;-60
2023/03/30 03:06:13;;;;;;;12.90;3.17;;;;;15.70;98016.00;;;;5013938;28;20061;-60
2023/03/30 03:08:46;;;;;;;12.18;2.45;;;;;15.80;98025.00;;;;5013388;28;20056;-59
2023/03/30 03:11:19;;;;;;;11.70;3.03;;;;;15.80;98029.00;;;;5014118;28;20527;-60
2023/03/30 03:13:46;;;;;;;13.00;3.50;;;;;15.90;98023.00;;;;5030407;28;20482;-59
2023/03/30 03:16:13;;;;;;;17.10;3.13;;;;;15.90;98015.00;;;;5013823;28;20499;-60
2023/03/30 03:18:54;;;;;;;11.30;3.08;;;;;15.90;98005.00;;;;5013340;28;20046;-59
2023/03/30 03:21:22;;;;;;;7.70;3.33;;;;;15.80;98006.00;;;;5013603;28;20507;-59
2023/03/30 03:23:49;;;;;;;13.27;3.67;;;;;15.60;97989.00;;;;5015018;28;20522;-60
2023/03/30 03:26:21;;;;;;;9.07;3.00;;;;;15.50;97982.00;;;;5013564;28;20058;-60
2023/03/30 03:28:48;;;;;;;12.25;3.78;;;;;15.40;97978.00;;;;5012993;28;20104;-60
2023/03/30 03:31:14;;;;;;;11.10;3.42;;;;;15.50;97982.00;;;;5014853;28;20499;-60
2023/03/30 03:33:43;;;;;;;9.48;3.60;;;;;15.50;97984.00;;;;5013503;28;20080;-59
2023/03/30 03:36:18;;;;;;;16.13;3.85;;;;;15.50;97961.00;;;;5013755;28;20046;-60
2023/03/30 03:38:49;;;;;;;14.27;3.45;;;;;15.40;97959.00;;;;5012908;28;20054;-60
2023/03/30 03:41:16;;;;;;;18.10;4.35;;;;;15.20;97935.00;;;;5013391;28;20395;-60
2023/03/30 03:43:43;;;;;;;10.35;3.47;;;;;15.10;97929.00;;;;5014712;28;20042;-59
2023/03/30 03:46:11;;;;;;;13.65;3.63;;;;;15.00;97949.00;;;;5013101;28;20058;-60
2023/03/30 03:48:38;;;;;;;11.90;3.40;;;;;15.10;97956.00;;;;5012747;28;20050;-60
2023/03/30 03:51:05;;;;;;;14.73;3.47;;;;;15.10;97952.00;;;;5013240;28;20069;-60
2023/03/30 03:53:33;;;;;;;12.35;3.80;;;;;15.20;97938.00;;;;5014418;28;20045;-60
2023/03/30 03:56:04;;;;;;;13.68;4.18;;;;;15.30;97938.00;;;;5013054;28;20077;-60
2023/03/30 03:58:32;;;;;;;12.05;4.00;;;;;15.40;97947.00;;;;5012658;28;20048;-60
2023/03/30 04:00:59;;;;;;;15.50;3.72;;;;;15.40;97947.00;;;;5012892;28;20041;-60
2023/03/30 04:03:27;;;;;;;14.18;4.32;;;;;15.40;97941.00;;;;5012782;28;20132;-60
2023/03/30 04:05:53;;;;;;;12.00;4.03;;;;;15.50;97959.00;;;;5014391;28;20045;-60
2023/03/30 04:08:20;;;;;;;11.40;4.20;;;;;15.50;97949.00;;;;5012760;28;20037;-60
2023/03/30 04:10:46;;;;;;;7.05;3.63;;;;;15.40;97960.00;;;;5012372;28;20107;-60
2023/03/30 04:13:28;;;;;;;13.95;3.90;;;;;15.40;97946.00;;;;5014172;28;20053;-60
2023/03/30 04:16:13;;;;;;;13.13;3.85;;;;;15.20;97942.00;;;;5014081;28;20585;-60
2023/03/30 04:18:46;;;;;;;15.57;4.20;;;;;15.20;97948.00;;;;5014052;28;20060;-60
2023/03/30 04:21:28;;;;;;;12.00;3.22;;;;;15.20;97958.00;;;;5014228;28;20057;-60
2023/03/30 04:24:13;;;;;;;9.23;3.25;;;;;15.20;97947.00;;;;5012920;28;20057;-60
2023/03/30 04:26:58;;;;;;;14.50;4.07;;;;;15.10;97946.00;;;;5014061;28;20070;-60
2023/03/30 04:29:31;;;;;;;8.77;3.35;;;;;15.10;97946.00;;;;5013451;28;20471;-60
2023/03/30 04:32:20;;;;;;;12.18;3.83;;;;;15.10;97944.00;;;;5013559;28;20061;-60
2023/03/30 04:34:55;;;;;;;13.85;3.53;;;;;15.10;97953.00;;;;5012760;28;20046;-59
2023/03/30 04:37:29;;;;;;;16.67;3.47;;;;;15.00;97936.00;;;;5014148;28;20045;-60
2023/03/30 04:40:11;;;;;;;14.80;4.05;;;;;15.00;97939.00;;;;5013112;28;20050;-60
2023/03/30 04:43:03;;;;;;;14.63;3.22;;;;;15.10;97952.00;;;;5012495;28;20096;-60
2023/03/30 04:45:47;;;;;;;13.45;3.92;;;;;15.00;97971.00;;;;5012244;28;20515;-61
2023/03/30 04:48:28;;;;;;;14.70;3.47;;;;;15.00;97982.00;;;;5012861;28;20145;-62
2023/03/30 04:51:20;;;;;;;10.98;3.42;;;;;14.90;97992.00;;;;5028571;28;20046;-61
2023/03/30 04:54:05;;;;;;;13.25;3.47;;;;;14.80;97985.00;;;;5013739;28;20149;-61
2023/03/30 04:56:55;;;;;;;11.00;3.67;;;;;14.70;97993.00;;;;4976145;28;20065;-60
2023/03/30 04:59:40;;;;;;;16.95;4.32;;;;;14.80;97983.00;;;;5025811;28;20065;-61
2023/03/30 05:02:26;;;;;;;12.15;4.65;;;;;14.80;97981.00;;;;5013391;28;20076;-60
2023/03/30 05:05:13;;;;;;;16.33;4.45;;;;;14.80;97986.00;;;;5002509;28;20060;-60
2023/03/30 05:07:52;;;;;;;12.75;4.28;;;;;14.80;97977.00;;;;5011885;28;20049;-60
2023/03/30 05:10:32;;;;;;;14.35;4.43;;;;;14.80;97988.00;;;;5011332;28;20144;-61
2023/03/30 05:13:17;;;;;;;20.05;4.22;;;;;14.80;98030.00;;;;5013238;28;20056;-61
2023/03/30 05:15:53;;;;;;;18.20;4.00;;;;;14.70;98077.00;;;;5012964;28;20057;-61
2023/03/30 05:18:46;;;;;;;16.17;4.47;;;;;14.60;98099.00;;;;5029371;28;20080;-60
2023/03/30 05:21:37;;;;;;;12.50;4.50;;;;;14.50;98091.00;;;;5012005;28;20042;-62
2023/03/30 05:24:22;;;;;;;17.95;5.00;;;;;14.50;98096.00;;;;5012768;28;20542;-60
2023/03/30 05:26:51;;;;;;;12.68;3.90;;;;;14.50;98090.00;;;;5012981;28;20086;-60
2023/03/30 05:29:18;;;;;;;15.90;4.45;;;;;14.50;98098.00;;;;5012323;28;20103;-61
2023/03/30 05:32:10;;;;;;;10.98;3.88;;;;;14.40;98099.00;;;;5012872;28;20137;-58
2023/03/30 05:34:42;;;;;;;14.23;3.75;;;;;14.40;98119.00;;;;5013198;28;20141;-60
2023/03/30 05:37:44;;;;;;;11.27;3.55;;;;;14.30;98095.00;;;;4971724;28;20408;-60
2023/03/30 05:40:30;;;;;;;8.13;3.50;;;;;14.30;98080.00;;;;5009003;28;20064;-60
2023/03/30 05:43:22;;;;;;;18.48;4.50;;;;;14.30;98094.00;;;;4982632;28;20119;-60
2023/03/30 05:46:08;;;;;;;15.50;3.92;;;;;14.30;98096.00;;;;5012857;28;20057;-60
2023/03/30 05:48:50;;;;;;;18.77;4.72;;;;;14.20;98102.00;;;;5012150;28;20034;-60
2023/03/30 05:51:16;;;;;;;11.32;4.15;;;;;14.20;98100.00;;;;5012582;28;20049;-60
2023/03/30 05:54:13;;;;;;;12.40;4.82;;;;;14.10;98097.00;;;;5011065;28;20066;-60
2023/03/30 05:56:57;;;;;;;11.75;4.22;;;;;14.00;98105.00;;;;5015114;28;20046;-60
2023/03/30 05:59:24;;;;;;;8.85;3.10;;;;;13.90;98098.00;;;;5015087;28;20108;-61
2023/03/30 06:02:03;;;;;;;18.17;3.75;;;;;13.90;98096.00;;;;5015729;28;20054;-61
2023/03/30 06:04:30;;;;;;;8.05;3.40;;;;;13.90;98085.00;;;;5015634;28;20486;-60
2023/03/30 06:06:58;;;;;;;12.25;3.58;;;;;13.80;98082.00;;;;5000076;28;20046;-59
2023/03/30 06:09:25;;;;;;;11.15;3.10;;;;;13.80;98080.00;;;;5017689;28;20037;-59
2023/03/30 06:11:53;;;;;;;13.18;4.30;;;;;13.80;98064.00;;;;5016743;28;20046;-59
2023/03/30 06:14:23;;;;;;;8.55;3.17;;;;;13.80;98041.00;;;;5016975;28;20065;-61
2023/03/30 06:17:21;;;;;;;5.95;3.10;;;;;13.80;98045.00;;;;5015031;28;20463;-61
2023/03/30 06:19:48;;;;;;;10.05;3.22;;;;;13.80;98052.00;;;;5029779;28;20042;-60
2023/03/30 06:22:15;;;;;;;7.60;3.50;;;;;13.80;98053.00;;;;5012123;28;20038;-61
2023/03/30 06:24:49;;;;;;;6.78;3.30;;;;;13.80;98037.00;;;;5010971;28;20577;-60
2023/03/30 06:27:15;;;;;;;8.20;2.72;;;;;13.90;98014.00;;;;5010938;28;20521;-59
2023/03/30 06:29:42;;;;;;;13.30;3.58;;;;;13.80;98017.00;;;;5026769;28;20053;-60
2023/03/30 06:32:09;;;;;;;8.55;3.33;;;;;13.90;98004.00;;;;5010806;28;20046;-60
2023/03/30 06:34:38;;;;;;;11.27;5.22;;;;;13.90;98003.00;;;;5012280;28;20499;-60
2023/03/30 06:37:07;;;;;;;9.63;3.78;;;;;13.90;97996.00;;;;5010767;28;20138;-59
2023/03/30 06:39:36;;;;;;;7.50;3.88;;;;;13.90;98003.00;;;;5011428;28;20070;-60
2023/03/30 06:42:04;;;;;;;6.03;3.38;;;;;14.00;98015.00;;;;5010986;28;20045;-60
2023/03/30 06:44:43;;;;;;;7.40;3.67;;;;;14.00;98024.00;;;;5010876;28;20046;-61
2023/03/30 06:47:13;;;;;;;4.95;3.20;;;;;14.00;98018.00;;;;5010808;28;20452;-61
2023/03/30 06:49:40;;;;;;;7.57;3.58;;;;;13.90;98014.00;;;;5010078;28;20426;-60
2023/03/30 06:52:26;;;;;;;5.38;3.10;;;;;13.90;98025.00;;;;5012144;28;20418;-61
2023/03/30 06:54:52;;;;;;;8.05;3.13;;;;;14.00;98021.00;;;;5011160;28;20046;-58
2023/03/30 06:57:19;;;;;;;8.50;3.42;;;;;14.00;97989.00;;;;5028449;28;20046;-60
2023/03/30 06:59:46;;;;;;;8.32;3.65;;;;;14.10;97945.00;;;;5028385;28;20050;-60
2023/03/30 07:02:32;;;;;;;6.57;3.22;;;;;14.10;97956.00;;;;5015528;28;20096;-59
2023/03/30 07:05:28;;;;;;;10.18;3.50;;;;;14.30;97976.00;;;;5011488;28;20418;-60
2023/03/30 07:08:06;;;;;;;8.40;3.60;;;;;14.40;97988.00;;;;5013013;28;20050;-62
2023/03/30 07:10:35;;;;;;;7.35;3.55;;;;;14.30;98005.00;;;;5001138;28;20069;-63
2023/03/30 07:13:06;;;;;;;7.13;3.47;;;;;14.30;98003.00;;;;5018987;28;20053;-62
2023/03/30 07:15:33;;;;;;;7.90;3.17;;;;;14.30;97995.00;;;;5018991;28;20054;-64
2023/03/30 07:17:59;;;;;;;9.00;3.60;;;;;14.30;97979.00;;;;5019813;28;20096;-62
2023/03/30 07:20:26;;;;;;;6.43;3.42;;;;;14.20;97976.00;;;;5034023;28;20477;-61
2023/03/30 07:23:07;;;;;;;8.82;3.85;;;;;14.10;97984.00;;;;5035211;28;20465;-62
2023/03/30 07:25:34;;;;;;;8.38;3.42;;;;;14.10;97972.00;;;;5018382;28;20140;-61
2023/03/30 07:28:09;;;;;;;8.65;3.20;;;;;14.10;97968.00;;;;5017858;28;20124;-62
2023/03/30 07:30:36;;;;;;;5.65;3.00;;;;;14.10;97964.00;;;;5018386;28;20045;-62
2023/03/30 07:33:05;;;;;;;9.35;3.22;;;;;14.20;97974.00;;;;5035614;28;20046;-62
2023/03/30 07:35:31;;;;;;;6.05;3.35;;;;;14.30;97969.00;;;;5018337;28;20050;-62
2023/03/30 07:38:01;;;;;;;6.65;3.08;;;;;14.30;97964.00;;;;5018181;28;20048;-62
2023/03/30 07:40:33;;;;;;;7.50;3.45;;;;;14.40;97969.00;;;;5017367;28;20100;-62
2023/03/30 07:43:02;;;;;;;9.05;5.20;;;;;14.50;97975.00;;;;5018379;28;20042;-62
2023/03/30 07:45:29;;;;;;;7.60;4.03;;;;;14.70;97967.00;;;;5019056;28;20053;-62
2023/03/30 07:47:56;;;;;;;4.55;2.83;;;;;14.80;97974.00;;;;5018134;28;20104;-61
2023/03/30 07:50:24;;;;;;;9.07;3.60;;;;;14.90;97980.00;;;;5018749;28;20230;-62
2023/03/30 07:52:53;;;;;;;5.45;2.88;;;;;15.00;97973.00;;;;5018574;28;20049;-61
2023/03/30 07:55:20;;;;;;;8.57;3.63;;;;;15.10;97967.00;;;;5017910;28;20065;-62
2023/03/30 07:58:03;;;;;;;8.73;5.80;;;;;15.30;97963.00;;;;5004295;28;20053;-62
2023/03/30 08:00:31;;;;;;;6.25;2.60;;;;;15.30;97967.00;;;;5013449;28;20057;-60
2023/03/30 08:03:30;;;;;;;7.28;3.08;;;;;15.40;97973.00;;;;5014256;28;20137;-59
2023/03/30 08:06:02;;;;;;;6.65;3.38;;;;;15.40;97967.00;;;;5012978;28;20149;-61
2023/03/30 08:08:37;;;;;;;7.03;3.13;;;;;15.60;97990.00;;;;5012561;28;20042;-59
2023/03/30 08:11:04;;;;;;;6.43;2.95;;;;;15.60;97993.00;;;;5014315;28;20057;-58
2023/03/30 08:13:31;;;;;;;5.13;2.55;;;;;15.70;98007.00;;;;5014382;28;20048;-60
2023/03/30 08:15:59;;;;;;;6.50;3.25;;;;;15.70;98038.00;;;;5014125;28;20126;-60
2023/03/30 08:18:25;;;;;;;12.55;2.63;;;;;15.60;98029.00;;;;5013799;28;20038;-59
2023/03/30 08:20:55;;;;;;;6.20;2.70;;;;;15.80;98021.00;;;;5013350;28;20068;-59
2023/03/30 08:23:21;;;;;;;6.28;2.83;;;;;15.80;98035.00;;;;5013637;28;20104;-60
2023/03/30 08:25:51;;;;;;;6.22;3.22;;;;;15.90;98032.00;;;;5013864;28;20061;-61
2023/03/30 08:28:18;;;;;;;6.50;2.22;;;;;16.00;98040.00;;;;5013738;28;20034;-61
2023/03/30 08:30:46;;;;;;;6.22;2.63;;;;;16.10;98033.00;;;;5013389;28;20065;-61
2023/03/30 08:33:13;;;;;;;7.35;2.55;;;;;16.20;98003.00;;;;5013873;28;20042;-60
2023/03/30 08:35:43;;;;;;;6.35;2.47;;;;;16.20;97975.00;;;;5013756;28;20120;-60
2023/03/30 08:38:11;;;;;;;5.10;2.03;;;;;16.20;97991.00;;;;5013682;28;20037;-60
2023/03/30 08:40:39;;;;;;;4.85;2.10;;;;;16.30;97998.00;;;;5011874;28;20052;-60
2023/03/30 08:43:29;;;;;;;5.55;2.90;;;;;16.30;98023.00;;;;5013683;28;20038;-60
2023/03/30 08:45:59;;;;;;;5.57;2.45;;;;;16.40;98038.00;;;;5013366;28;20495;-59
2023/03/30 08:48:30;;;;;;;4.70;2.65;;;;;16.30;98012.00;;;;5013070;28;20137;-61
2023/03/30 08:51:18;;;;;;;3.28;2.22;;;;;16.20;97989.00;;;;5012220;28;20565;-61
2023/03/30 08:53:46;;;;;;;6.50;2.72;;;;;16.00;97987.00;;;;5003277;28;20573;-60
2023/03/30 08:56:20;;;;;;;4.88;2.60;;;;;15.90;98017.00;;;;5012155;28;20054;-61
2023/03/30 08:59:17;;;;;;;6.15;2.30;;;;;15.80;98036.00;;;;5011525;28;20056;-62
2023/03/30 09:01:53;;;;;;;10.48;4.65;;;;;15.60;98045.00;;;;5028425;28;20038;-58
2023/03/30 09:04:38;;;;;;;7.10;2.70;;;;;15.50;98048.00;;;;5028526;28;20099;-58
2023/03/30 09:07:20;;;;;;;4.97;2.95;;;;;15.50;98031.00;;;;5011999;28;20052;-61
2023/03/30 09:09:52;;;;;;;6.07;3.20;;;;;15.30;98032.00;;;;5012606;28;20121;-63
2023/03/30 09:12:46;;;;;;;7.65;3.03;;;;;15.20;98037.00;;;;5013201;28;20423;-58
2023/03/30 09:15:20;;;;;;;6.78;3.10;;;;;15.20;98043.00;;;;5005425;28;20169;-57
2023/03/30 09:17:54;;;;;;;8.02;2.80;;;;;15.20;98048.00;;;;5013146;28;20065;-58
2023/03/30 09:20:23;;;;;;;4.80;2.78;;;;;15.30;98041.00;;;;5012680;28;20481;-57
2023/03/30 09:22:52;;;;;;;8.07;3.08;;;;;15.30;98036.00;;;;5011951;28;20517;-59
2023/03/30 09:25:45;;;;;;;5.32;3.05;;;;;15.40;98046.00;;;;5011837;28;20053;-57
2023/03/30 09:28:15;;;;;;;4.70;3.10;;;;;15.40;98053.00;;;;5012683;28;20085;-59
2023/03/30 09:30:51;;;;;;;5.23;2.73;;;;;15.40;98061.00;;;;5012593;28;20083;-57
2023/03/30 09:33:45;;;;;;;4.97;2.78;;;;;15.40;98053.00;;;;5012842;28;20137;-60
2023/03/30 09:36:25;;;;;;;9.80;3.38;;;;;15.50;98055.00;;;;5012816;28;20046;-58
2023/03/30 09:38:55;;;;;;;5.30;3.00;;;;;15.60;98069.00;;;;5012329;28;20084;-57
2023/03/30 09:41:46;;;;;;;6.97;3.10;;;;;15.70;98058.00;;;;5012816;28;20409;-59
2023/03/30 09:44:32;;;;;;;7.57;2.92;;;;;15.80;98058.00;;;;5012830;28;20499;-58
2023/03/30 09:47:00;;;;;;;6.78;3.40;;;;;15.90;98060.00;;;;5012528;28;20494;-61
2023/03/30 09:49:28;;;;;;;5.88;2.60;;;;;15.90;98056.00;;;;5012156;28;20042;-59
2023/03/30 09:52:05;;;;;;;6.00;2.85;;;;;16.00;98058.00;;;;5012978;28;20038;-61
2023/03/30 09:54:37;;;;;;;5.00;2.40;;;;;16.10;98062.00;;;;5015277;28;20425;-59
2023/03/30 09:57:04;;;;;;;8.88;3.03;;;;;16.20;98060.00;;;;5013268;28;20049;-59
2023/03/30 09:59:36;;;;;;;5.82;2.72;;;;;16.40;98059.00;;;;5012002;28;20092;-63
2023/03/30 10:02:11;;;;;;;5.57;2.50;;;;;16.60;98065.00;;;;5012256;28;20050;-61
2023/03/30 10:04:55;;;;;;;6.40;2.42;;;;;16.80;98067.00;;;;5012569;28;20534;-58
2023/03/30 10:07:35;;;;;;;5.60;2.22;;;;;16.90;98068.00;;;;5012452;28;20488;-59
2023/03/30 10:10:34;;;;;;;3.53;2.35;;;;;16.90;98073.00;;;;5011751;28;20042;-57
2023/03/30 10:13:10;;;;;;;5.95;2.78;;;;;16.70;98094.00;;;;5011066;28;20049;-58
2023/03/30 10:15:39;;;;;;;9.48;3.10;;;;;16.40;98086.00;;;;5012680;28;20100;-58
2023/03/30 10:18:36;;;;;;;3.55;2.17;;;;;16.20;98080.00;;;;5012215;28;20142;-57
2023/03/30 10:21:06;;;;;;;3.72;2.45;;;;;16.20;98088.00;;;;5010874;28;20549;-56
2023/03/30 10:23:38;;;;;;;6.63;2.38;;;;;16.10;98083.00;;;;5012178;28;20053;-62
2023/03/30 10:26:12;;;;;;;5.32;2.40;;;;;16.00;98080.00;;;;5012273;28;20415;-61
2023/03/30 10:28:40;;;;;;;5.35;2.00;;;;;16.10;98079.00;;;;5011779;28;20073;-61
2023/03/30 10:31:14;;;;;;;10.68;3.42;;;;;16.30;98078.00;;;;5015223;28;20101;-61
2023/03/30 10:33:43;;;;;;;5.50;3.10;;;;;16.70;98067.00;;;;5011317;28;20413;-58
2023/03/30 10:36:13;;;;;;;7.85;2.70;;;;;17.10;98072.00;;;;5012760;28;20057;-61
2023/03/30 10:38:41;;;;;;;6.75;2.75;;;;;17.10;98071.00;;;;5011683;28;20034;-61
2023/03/30 10:41:14;;;;;;;5.88;2.58;;;;;17.10;98073.00;;;;5015608;28;20112;-59
2023/03/30 10:43:41;;;;;;;;;;;;;17.20;98072.00;;;;5014311;28;20150;-62
2023/03/30 10:46:13;;;;;;;4.43;2.25;;;;;17.10;98065.00;;;;5017864;28;19922;-62
2023/03/30 10:48:51;;;;;;;5.88;2.20;;;;;17.30;98066.00;;;;5020493;28;20046;-61
2023/03/30 10:51:43;;;;;;;3.67;2.30;;;;;17.40;98059.00;;;;5015293;28;20104;-62
2023/03/30 10:54:17;;;;;;;6.63;3.60;;;;;17.20;98058.00;;;;5016756;28;20100;-61
2023/03/30 10:56:48;;;;;;;5.13;2.17;;;;;17.10;98058.00;;;;5020689;28;20042;-61
2023/03/30 10:59:37;;;;;;;5.90;2.35;;;;;17.00;98060.00;;;;5023103;28;20076;-60
2023/03/30 11:02:25;;;;;;;6.07;2.17;;;;;17.00;98053.00;;;;5017525;28;20050;-60
2023/03/30 11:05:18;;;;;;;6.78;2.97;;;;;17.00;98054.00;;;;5016892;28;20406;-57
2023/03/30 11:07:58;;;;;;;8.25;2.70;;;;;17.10;98048.00;;;;5021226;28;20073;-60
2023/03/30 11:10:44;;;;;;;6.45;2.70;;;;;17.50;98042.00;;;;5017809;28;20042;-58
2023/03/30 11:13:22;;;;;;;6.60;2.63;;;;;17.70;98038.00;;;;5016747;28;20048;-61
2023/03/30 11:15:56;;;;;;;11.93;2.95;;;;;17.90;98048.00;;;;5017245;28;20042;-57
2023/03/30 11:18:32;;;;;;;8.10;2.53;;;;;18.00;98035.00;;;;5016607;28;20034;-60
2023/03/30 11:21:03;;;;;;;5.18;2.60;;;;;17.90;98045.00;;;;5018363;28;20112;-60
2023/03/30 11:24:01;;;;;;;7.18;2.20;;;;;17.90;98030.00;;;;5021111;28;20521;-62
2023/03/30 11:26:38;;;;;;;3.72;1.65;;;;;17.70;98038.00;;;;5021730;28;20139;-63
2023/03/30 11:29:23;;;;;;;5.20;1.80;;;;;17.60;98045.00;;;;5029994;28;20388;-58
2023/03/30 11:32:08;;;;;;;2.67;1.83;;;;;17.40;98039.00;;;;5016632;28;20057;-57
2023/03/30 11:35:00;;;;;;;5.45;1.60;;;;;17.20;98052.00;;;;5015080;28;20140;-61
2023/03/30 11:37:34;;;;;;;4.28;1.70;;;;;17.20;98046.00;;;;5024759;28;20125;-63
2023/03/30 11:40:20;;;;;;;4.25;1.75;;;;;17.40;98041.00;;;;5022796;28;20057;-62
2023/03/30 11:42:47;;;;;;;5.05;1.77;;;;;17.70;98041.00;;;;5039635;28;20054;-62
2023/03/30 11:45:42;;;;;;;5.68;1.60;;;;;18.00;98029.00;;;;5023585;28;20044;-61
2023/03/30 11:48:27;;;;;;;3.22;1.30;;;;;18.50;98041.00;;;;5016442;28;20038;-60
2023/03/30 11:51:25;;;;;;;3.40;1.40;;;;;18.40;98045.00;;;;5020575;28;20053;-61
2023/03/30 11:54:20;;;;;;;6.85;1.80;;;;;18.30;98059.00;;;;5017150;28;20100;-61
2023/03/30 11:56:57;;;;;;;6.68;1.30;;;;;18.20;98061.00;;;;5017317;28;20487;-60
2023/03/30 11:59:27;;;;;;;4.78;1.52;;;;;18.40;98034.00;;;;5019068;28;20050;-62
2023/03/30 12:01:56;;;;;;;4.85;1.73;;;;;18.70;98038.00;;;;5017610;28;20049;-63
2023/03/30 12:04:28;;;;;;;3.13;1.50;;;;;18.90;98054.00;;;;5022155;28;20045;-62
2023/03/30 12:06:58;;;;;;;4.65;2.30;;;;;18.70;98073.00;;;;5019075;28;20057;-61
2023/03/30 12:09:26;;;;;;;9.27;2.00;;;;;18.40;98058.00;;;;5021882;28;20343;-62
2023/03/30 12:12:17;;;;;;;6.40;1.80;;;;;18.20;98057.00;;;;5016203;28;20050;-60
2023/03/30 12:15:25;;;;;;;5.05;1.58;;;;;18.10;98067.00;;;;5016341;28;20499;-59
2023/03/30 12:18:00;;;;;;;3.78;1.08;;;;;18.10;98070.00;;;;5015258;28;20038;-61
2023/03/30 12:20:40;;;;;;;6.63;1.70;;;;;18.10;98055.00;;;;5001810;28;20053;-61
2023/03/30 12:23:21;;;;;;;4.88;1.65;;;;;18.10;98047.00;;;;5014144;28;20049;-61
2023/03/30 12:26:09;;;;;;;2.03;1.30;;;;;18.20;98027.00;;;;5017348;28;20046;-64
2023/03/30 12:28:43;;;;;;;4.63;1.67;;;;;18.40;98040.00;;;;5017493;28;20042;-61
2023/03/30 12:31:15;;;;;;;2.28;1.13;;;;;18.60;98025.00;;;;5020389;28;20038;-59
2023/03/30 12:33:50;;;;;;;4.70;2.08;;;;;18.70;98032.00;;;;5014226;28;20052;-60
2023/03/30 12:36:38;;;;;;;3.90;1.50;;;;;18.90;98034.00;;;;5012970;28;20056;-60
2023/03/30 12:39:29;;;;;;;6.55;1.45;;;;;18.90;98027.00;;;;5015204;28;20088;-59
2023/03/30 12:42:06;;;;;;;3.85;1.75;;;;;18.90;98022.00;;;;5015335;28;20060;-58
2023/03/30 12:44:48;;;;;;;5.32;1.50;;;;;18.90;98026.00;;;;5014653;28;20100;-60
2023/03/30 12:47:50;;;;;;;2.85;1.60;;;;;18.90;98024.00;;;;5014158;28;20125;-58
2023/03/30 12:50:49;;;;;;;5.82;1.02;;;;;18.70;98030.00;;;;5012560;28;20100;-60
2023/03/30 12:53:37;;;;;;;4.95;1.23;;;;;18.70;98015.00;;;;5014278;28;20088;-60
2023/03/30 12:56:41;;;;;;;5.20;1.27;;;;;18.70;98043.00;;;;5013604;28;20046;-60
2023/03/30 12:59:16;;;;;;;4.22;1.38;;;;;18.90;98024.00;;;;5012885;28;20113;-61
2023/03/30 13:02:20;;;;;;;3.45;1.30;;;;;19.10;98023.00;;;;5014898;28;20498;-60